Time;durP1;ratioP1;P1;durP2;ratioP2;P2;SDS_P1;SDS_P2;PMS_P1;PMS_P2;Temp;Humidity;BMP_temperature;BMP_pressure;BME280_temperature;BME280_humidity;BME280_pressure;Samples;Min_cycle;Max_cycle;Signal;HPM_P1;HPM_P2
2022/12/12 00:01:51;;;;;;;3.23;0.97;;;;;;;;;;5087565;28;20024;-59
2022/12/12 00:04:18;;;;;;;0.97;0.70;;;;;;;;;;5087761;28;20538;-59
2022/12/12 00:06:44;;;;;;;1.33;0.70;;;;;;;;;;5087864;28;20056;-58
2022/12/12 00:09:11;;;;;;;1.30;0.70;;;;;;;;;;5089301;28;20051;-58
2022/12/12 00:11:38;;;;;;;3.47;1.37;;;;;;;;;;5105739;28;20412;-58
2022/12/12 00:14:05;;;;;;;1.47;0.60;;;;;;;;;;5093195;28;20040;-58
2022/12/12 00:16:32;;;;;;;24.97;14.00;;;;;;;;;;5092570;28;20100;-58
2022/12/12 00:18:58;;;;;;;9.77;4.60;;;;;;;;;;5092179;28;20027;-58
2022/12/12 00:21:26;;;;;;;5.23;3.53;;;;;;;;;;5090383;28;20046;-58
2022/12/12 00:23:53;;;;;;;5.97;2.60;;;;;;;;;;5087435;28;20020;-58
2022/12/12 00:26:19;;;;;;;3.00;2.07;;;;;;;;;;5087143;28;20470;-58
2022/12/12 00:28:46;;;;;;;3.73;1.73;;;;;;;;;;5087002;28;20111;-58
2022/12/12 00:31:13;;;;;;;5.53;3.13;;;;;;;;;;5088548;28;20386;-58
2022/12/12 00:33:40;;;;;;;22.50;2.57;;;;;;;;;;5092336;28;20046;-58
2022/12/12 00:36:07;;;;;;;5.03;2.30;;;;;;;;;;5091790;28;20024;-58
2022/12/12 00:38:33;;;;;;;3.70;2.17;;;;;;;;;;5092066;28;20659;-58
2022/12/12 00:41:01;;;;;;;6.07;2.37;;;;;;;;;;5092245;28;20024;-58
2022/12/12 00:59:22;;;;;;;2.63;1.60;;;;;;;;;;5105995;27;20697;-58
2022/12/12 01:01:48;;;;;;;2.00;1.30;;;;;;;;;;5104496;28;20031;-57
2022/12/12 01:04:15;;;;;;;11.13;3.47;;;;;;;;;;5104167;28;20466;-57
2022/12/12 01:06:42;;;;;;;6.37;2.73;;;;;;;;;;5104213;28;20028;-58
2022/12/12 01:09:08;;;;;;;5.90;2.87;;;;;;;;;;5106920;28;20019;-57
2022/12/12 01:11:35;;;;;;;18.00;4.93;;;;;;;;;;5109451;28;21579;-58
2022/12/12 01:14:02;;;;;;;14.03;3.30;;;;;;;;;;5110024;28;20102;-57
2022/12/12 01:16:29;;;;;;;14.83;3.53;;;;;;;;;;5109006;28;20024;-57
2022/12/12 01:18:56;;;;;;;10.83;3.67;;;;;;;;;;5109773;28;20031;-58
2022/12/12 01:21:23;;;;;;;6.13;3.80;;;;;;;;;;5105890;28;20040;-58
2022/12/12 01:23:50;;;;;;;20.70;4.17;;;;;;;;;;5104341;28;20054;-57
2022/12/12 01:26:17;;;;;;;8.93;3.83;;;;;;;;;;5104400;28;20034;-57
2022/12/12 01:28:44;;;;;;;10.83;5.40;;;;;;;;;;5104300;28;20058;-57
2022/12/12 01:31:11;;;;;;;9.93;5.03;;;;;;;;;;5106870;28;20028;-58
2022/12/12 01:33:38;;;;;;;10.63;4.00;;;;;;;;;;5108849;28;20058;-58
2022/12/12 01:36:06;;;;;;;9.73;3.80;;;;;;;;;;5109295;28;20361;-58
2022/12/12 01:38:32;;;;;;;7.90;3.27;;;;;;;;;;5109194;28;20497;-58
2022/12/12 01:40:59;;;;;;;5.40;3.20;;;;;;;;;;5108857;28;20025;-57
2022/12/12 01:43:26;;;;;;;22.43;5.53;;;;;;;;;;5105994;28;20016;-57
2022/12/12 01:46:00;;;;;;;3.63;1.90;;;;;;;;;;5103861;28;20031;-57
2022/12/12 01:48:28;;;;;;;10.37;4.47;;;;;;;;;;5102905;28;20036;-57
2022/12/12 01:50:57;;;;;;;5.57;3.50;;;;;;;;;;5103661;28;20016;-58
2022/12/12 01:53:24;;;;;;;6.73;3.23;;;;;;;;;;5106408;28;20020;-58
2022/12/12 01:55:51;;;;;;;6.70;2.80;;;;;;;;;;5093015;28;20023;-58
2022/12/12 01:58:17;;;;;;;5.80;3.43;;;;;;;;;;5108658;28;20170;-57
2022/12/12 02:00:44;;;;;;;6.50;3.10;;;;;;;;;;5108821;28;20016;-57
2022/12/12 02:03:12;;;;;;;4.27;1.90;;;;;;;;;;5108590;28;20509;-57
2022/12/12 02:05:44;;;;;;;4.10;2.10;;;;;;;;;;5105673;28;20020;-58
2022/12/12 02:08:12;;;;;;;1.73;1.40;;;;;;;;;;5103726;28;20055;-57
2022/12/12 02:10:39;;;;;;;1.77;1.40;;;;;;;;;;5090449;28;20020;-58
2022/12/12 02:13:07;;;;;;;13.50;3.60;;;;;;;;;;5089846;28;20031;-57
2022/12/12 02:15:45;;;;;;;2.90;1.90;;;;;;;;;;5091993;28;20016;-57
2022/12/12 02:18:32;;;;;;;24.47;4.60;;;;;;;;;;5094706;28;20408;-57
2022/12/12 02:21:09;;;;;;;3.23;2.00;;;;;;;;;;5083628;28;20094;-58
2022/12/12 02:24:04;;;;;;;10.87;3.27;;;;;;;;;;5094598;28;21709;-57
2022/12/12 02:26:37;;;;;;;3.07;1.67;;;;;;;;;;5089919;28;20028;-57
2022/12/12 02:29:24;;;;;;;2.33;1.63;;;;;;;;;;5089307;28;20488;-57
2022/12/12 02:31:51;;;;;;;11.30;2.40;;;;;;;;;;5089260;28;20106;-57
2022/12/12 02:34:45;;;;;;;5.27;3.67;;;;;;;;;;5089833;28;20477;-57
2022/12/12 02:37:15;;;;;;;5.30;3.97;;;;;;;;;;5090554;28;20095;-57
2022/12/12 02:39:55;;;;;;;11.43;4.43;;;;;;;;;;5094818;28;20031;-57
2022/12/12 02:42:25;;;;;;;5.43;2.67;;;;;;;;;;5079379;28;20024;-57
2022/12/12 02:45:02;;;;;;;4.10;2.70;;;;;;;;;;5094304;28;20020;-57
2022/12/12 02:47:33;;;;;;;15.23;9.77;;;;;;;;;;5094320;28;20119;-57
2022/12/12 02:50:02;;;;;;;11.60;6.87;;;;;;;;;;5092018;28;20016;-57
2022/12/12 02:52:29;;;;;;;10.23;5.93;;;;;;;;;;5088738;28;20024;-57
2022/12/12 02:54:56;;;;;;;14.13;8.50;;;;;;;;;;5088861;28;20024;-57
2022/12/12 02:57:24;;;;;;;14.87;7.07;;;;;;;;;;5088679;28;20050;-57
2022/12/12 03:00:08;;;;;;;14.77;8.97;;;;;;;;;;5091037;28;20099;-57
2022/12/12 03:02:51;;;;;;;13.10;4.77;;;;;;;;;;5093382;28;20035;-57
2022/12/12 03:08:05;;;;;;;13.15;7.68;;;;;;;;;;5094069;28;20035;-57
2022/12/12 03:10:50;;;;;;;13.97;6.20;;;;;;;;;;5094177;28;20040;-57
2022/12/12 03:13:23;;;;;;;6.72;3.67;;;;;;;;;;5089234;28;20028;-58
2022/12/12 03:15:56;;;;;;;10.13;6.23;;;;;;;;;;5088999;28;20024;-56
2022/12/12 03:18:26;;;;;;;10.93;5.53;;;;;;;;;;5088229;28;20097;-57
2022/12/12 03:21:02;;;;;;;27.27;3.90;;;;;;;;;;5086993;28;20504;-57
2022/12/12 03:23:32;;;;;;;8.43;3.70;;;;;;;;;;5092897;28;20024;-58
2022/12/12 03:26:03;;;;;;;6.77;4.37;;;;;;;;;;5093754;28;20085;-57
2022/12/12 03:28:29;;;;;;;5.13;3.60;;;;;;;;;;5092888;28;20020;-57
2022/12/12 03:30:57;;;;;;;4.17;3.00;;;;;;;;;;5093828;28;20465;-57
2022/12/12 03:33:43;;;;;;;5.47;3.47;;;;;;;;;;5093676;28;20090;-56
2022/12/12 03:36:19;;;;;;;3.97;2.87;;;;;;;;;;5088361;28;20028;-56
2022/12/12 03:38:55;;;;;;;6.37;3.40;;;;;;;;;;5088172;28;20027;-56
2022/12/12 03:41:24;;;;;;;3.07;2.17;;;;;;;;;;5085430;28;20056;-58
2022/12/12 03:43:57;;;;;;;4.00;2.73;;;;;;;;;;5087102;28;20355;-57
2022/12/12 03:46:27;;;;;;;18.67;2.70;;;;;;;;;;5093522;28;20043;-57
2022/12/12 03:49:05;;;;;;;4.03;2.33;;;;;;;;;;5091282;28;20024;-57
2022/12/12 03:51:34;;;;;;;17.93;2.50;;;;;;;;;;5093306;28;20028;-56
2022/12/12 03:54:11;;;;;;;2.47;1.40;;;;;;;;;;5084082;28;20493;-57
2022/12/12 03:56:43;;;;;;;1.00;0.80;;;;;;;;;;5089191;28;20214;-57
2022/12/12 03:59:12;;;;;;;2.60;2.10;;;;;;;;;;5082622;28;20040;-56
2022/12/12 04:01:50;;;;;;;4.83;2.07;;;;;;;;;;5078750;28;20024;-57
2022/12/12 04:04:21;;;;;;;2.27;1.50;;;;;;;;;;5087395;28;20508;-57
2022/12/12 04:06:58;;;;;;;4.50;1.63;;;;;;;;;;5089320;28;20070;-56
2022/12/12 04:15:23;;;;;;;3.23;1.63;;;;;;;;;;5093409;28;20067;-57
2022/12/12 04:17:56;;;;;;;3.83;2.50;;;;;;;;;;5092838;28;20089;-56
2022/12/12 04:23:37;;;;;;;3.87;2.03;;;;;;;;;;5087754;28;20035;-57
2022/12/12 04:26:39;;;;;;;1.90;1.13;;;;;;;;;;5082594;28;20036;-56
2022/12/12 04:29:06;;;;;;;12.07;2.30;;;;;;;;;;5088302;28;20028;-56
2022/12/12 04:31:34;;;;;;;8.00;1.83;;;;;;;;;;5092355;28;20346;-56
2022/12/12 04:34:03;;;;;;;3.57;1.53;;;;;;;;;;5092356;28;20024;-56
2022/12/12 04:36:32;;;;;;;1.70;1.13;;;;;;;;;;5092710;28;20028;-56
2022/12/12 04:39:00;;;;;;;5.47;2.23;;;;;;;;;;5092632;28;20040;-57
2022/12/12 04:41:28;;;;;;;7.03;1.90;;;;;;;;;;5090010;28;20020;-57
2022/12/12 04:43:56;;;;;;;1.60;1.20;;;;;;;;;;5087352;28;20029;-57
2022/12/12 04:46:24;;;;;;;2.60;1.43;;;;;;;;;;5086454;28;20028;-57
2022/12/12 04:48:59;;;;;;;3.20;1.57;;;;;;;;;;5087297;28;20070;-56
2022/12/12 04:51:31;;;;;;;1.92;1.30;;;;;;;;;;5089324;28;20016;-56
2022/12/12 04:54:10;;;;;;;4.37;2.10;;;;;;;;;;5092402;28;20031;-56
2022/12/12 04:56:38;;;;;;;3.33;1.30;;;;;;;;;;5091950;28;20020;-57
2022/12/12 04:59:05;;;;;;;2.43;1.20;;;;;;;;;;5092376;28;20050;-56
2022/12/12 05:01:44;;;;;;;1.67;1.27;;;;;;;;;;5092470;28;20051;-56
2022/12/12 05:04:14;;;;;;;1.00;0.80;;;;;;;;;;5088613;28;20466;-56
2022/12/12 05:06:46;;;;;;;6.03;1.93;;;;;;;;;;5087068;28;20043;-56
2022/12/12 05:09:13;;;;;;;3.87;2.07;;;;;;;;;;5086974;28;20095;-56
2022/12/12 05:11:41;;;;;;;3.33;2.47;;;;;;;;;;5087002;28;20059;-56
2022/12/12 05:14:08;;;;;;;3.13;1.47;;;;;;;;;;5089954;28;20091;-56
2022/12/12 05:16:38;;;;;;;3.47;1.53;;;;;;;;;;5092365;28;20020;-56
2022/12/12 05:19:04;;;;;;;1.33;1.03;;;;;;;;;;5092066;28;20553;-56
2022/12/12 05:21:31;;;;;;;9.73;1.67;;;;;;;;;;5091712;28;20016;-56
2022/12/12 05:23:58;;;;;;;4.13;2.53;;;;;;;;;;5091962;28;20060;-57
2022/12/12 05:26:32;;;;;;;8.73;2.80;;;;;;;;;;5088727;28;20476;-56
2022/12/12 05:28:59;;;;;;;1.45;1.02;;;;;;;;;;5086867;28;20111;-56
2022/12/12 05:31:26;;;;;;;9.57;2.60;;;;;;;;;;5086788;28;20031;-57
2022/12/12 05:33:53;;;;;;;3.73;1.83;;;;;;;;;;5086415;28;20081;-56
2022/12/12 05:36:20;;;;;;;2.03;1.37;;;;;;;;;;5085418;28;20389;-56
2022/12/12 05:38:47;;;;;;;1.17;0.87;;;;;;;;;;5092009;28;20042;-56
2022/12/12 05:41:14;;;;;;;1.10;1.00;;;;;;;;;;5092234;28;20044;-56
2022/12/12 05:43:40;;;;;;;2.30;1.77;;;;;;;;;;5091700;28;20016;-57
2022/12/12 05:46:07;;;;;;;3.37;1.63;;;;;;;;;;5095467;28;20110;-56
2022/12/12 05:48:34;;;;;;;2.63;1.63;;;;;;;;;;5092428;28;20016;-56
2022/12/12 05:51:01;;;;;;;2.67;1.53;;;;;;;;;;5090456;28;20381;-56
2022/12/12 05:53:28;;;;;;;2.87;1.77;;;;;;;;;;5089714;28;20474;-56
2022/12/12 05:55:55;;;;;;;3.33;1.27;;;;;;;;;;5090348;28;20024;-56
2022/12/12 05:58:22;;;;;;;1.67;1.23;;;;;;;;;;5092882;28;20478;-56
2022/12/12 06:00:49;;;;;;;2.10;1.07;;;;;;;;;;5095062;28;20024;-56
2022/12/12 06:03:17;;;;;;;1.57;1.23;;;;;;;;;;5095547;28;20024;-56
2022/12/12 06:05:43;;;;;;;2.27;0.83;;;;;;;;;;5095479;28;20431;-56
2022/12/12 06:08:10;;;;;;;1.10;1.00;;;;;;;;;;5095347;28;20020;-56
2022/12/12 06:10:37;;;;;;;9.47;1.90;;;;;;;;;;5092126;28;20035;-56
2022/12/12 06:13:03;;;;;;;2.57;1.77;;;;;;;;;;5089954;28;20104;-56
2022/12/12 06:15:30;;;;;;;5.47;2.50;;;;;;;;;;5090095;28;20181;-56
2022/12/12 06:17:57;;;;;;;6.43;2.10;;;;;;;;;;5089795;28;20449;-56
2022/12/12 06:20:24;;;;;;;1.73;1.40;;;;;;;;;;5092164;28;20024;-56
2022/12/12 06:22:50;;;;;;;2.43;1.60;;;;;;;;;;5095308;28;20079;-56
2022/12/12 06:25:17;;;;;;;3.33;1.77;;;;;;;;;;5094799;28;20020;-56
2022/12/12 06:27:44;;;;;;;1.53;1.03;;;;;;;;;;5094666;28;20058;-56
2022/12/12 06:30:10;;;;;;;1.13;1.00;;;;;;;;;;5094955;28;20029;-56
2022/12/12 06:32:37;;;;;;;2.37;1.60;;;;;;;;;;5092552;28;20521;-56
2022/12/12 06:35:04;;;;;;;1.13;0.93;;;;;;;;;;5089695;28;20371;-56
2022/12/12 06:37:31;;;;;;;2.57;1.70;;;;;;;;;;5089426;28;20056;-56
2022/12/12 06:39:57;;;;;;;7.33;2.60;;;;;;;;;;5089556;28;20035;-56
2022/12/12 06:42:24;;;;;;;1.83;1.43;;;;;;;;;;5090564;28;20028;-56
2022/12/12 06:44:51;;;;;;;2.43;1.70;;;;;;;;;;5094664;28;20365;-56
2022/12/12 06:47:17;;;;;;;3.93;1.77;;;;;;;;;;5094644;28;20100;-56
2022/12/12 06:49:44;;;;;;;1.80;1.37;;;;;;;;;;5094573;28;20020;-56
2022/12/12 06:52:11;;;;;;;2.40;2.00;;;;;;;;;;5094473;28;20504;-56
2022/12/12 06:54:38;;;;;;;2.57;2.07;;;;;;;;;;5092669;28;20050;-57
2022/12/12 06:57:05;;;;;;;3.30;2.43;;;;;;;;;;5089194;28;20059;-56
2022/12/12 06:59:31;;;;;;;2.27;1.63;;;;;;;;;;5088703;28;20440;-55
2022/12/12 07:01:58;;;;;;;3.07;2.27;;;;;;;;;;5088814;28;20433;-57
2022/12/12 07:04:25;;;;;;;2.87;2.23;;;;;;;;;;5089982;28;20055;-56
2022/12/12 07:06:52;;;;;;;1.93;1.33;;;;;;;;;;5094228;28;20028;-56
2022/12/12 07:09:19;;;;;;;1.77;1.40;;;;;;;;;;5094139;28;20055;-55
2022/12/12 07:11:46;;;;;;;2.43;1.60;;;;;;;;;;5094142;28;20381;-56
2022/12/12 07:14:12;;;;;;;1.63;1.40;;;;;;;;;;5093772;28;20032;-56
2022/12/12 07:16:39;;;;;;;2.40;1.67;;;;;;;;;;5092669;28;20059;-56
2022/12/12 07:19:06;;;;;;;4.57;2.70;;;;;;;;;;5088229;28;20047;-56
2022/12/12 07:21:33;;;;;;;4.20;2.50;;;;;;;;;;5088445;28;20035;-56
2022/12/12 07:23:59;;;;;;;3.43;1.83;;;;;;;;;;5088540;28;20024;-56
2022/12/12 07:26:26;;;;;;;2.17;1.20;;;;;;;;;;5089241;28;20028;-56
2022/12/12 07:28:53;;;;;;;2.37;1.60;;;;;;;;;;5093762;28;20030;-56
2022/12/12 07:31:20;;;;;;;2.40;1.83;;;;;;;;;;5093077;28;20039;-55
2022/12/12 07:33:47;;;;;;;3.70;1.87;;;;;;;;;;5093871;28;20745;-55
2022/12/12 07:36:15;;;;;;;1.50;1.20;;;;;;;;;;5093452;28;20105;-56
2022/12/12 07:38:42;;;;;;;18.67;1.93;;;;;;;;;;5092631;28;20035;-56
2022/12/12 07:41:10;;;;;;;7.57;1.87;;;;;;;;;;5088375;28;20352;-55
2022/12/12 07:43:38;;;;;;;3.10;1.97;;;;;;;;;;5087904;28;20019;-56
2022/12/12 07:46:07;;;;;;;2.17;1.67;;;;;;;;;;5087854;28;20023;-56
2022/12/12 07:48:34;;;;;;;5.10;2.33;;;;;;;;;;5088281;28;20354;-56
2022/12/12 07:51:01;;;;;;;3.10;2.07;;;;;;;;;;5093564;28;20044;-56
2022/12/12 07:53:28;;;;;;;2.50;1.83;;;;;;;;;;5093231;28;20099;-56
2022/12/12 07:55:55;;;;;;;2.67;2.10;;;;;;;;;;5093334;28;20374;-56
2022/12/12 07:58:22;;;;;;;2.73;1.80;;;;;;;;;;5093231;28;20121;-55
2022/12/12 08:00:48;;;;;;;5.50;1.77;;;;;;;;;;5092101;28;20024;-56
2022/12/12 08:03:15;;;;;;;1.40;1.20;;;;;;;;;;5087802;28;20027;-56
2022/12/12 08:05:42;;;;;;;4.23;1.97;;;;;;;;;;5087932;28;20032;-55
2022/12/12 08:08:09;;;;;;;2.93;2.23;;;;;;;;;;5087220;28;20058;-56
2022/12/12 08:10:38;;;;;;;3.80;2.17;;;;;;;;;;5087191;28;20032;-56
2022/12/12 08:13:05;;;;;;;3.60;2.43;;;;;;;;;;5092904;28;20029;-56
2022/12/12 08:15:32;;;;;;;2.17;1.77;;;;;;;;;;5092727;28;20027;-56
2022/12/12 08:17:58;;;;;;;2.17;1.47;;;;;;;;;;5093104;28;20032;-56
2022/12/12 08:20:25;;;;;;;1.90;1.40;;;;;;;;;;5092891;28;20344;-56
2022/12/12 08:22:52;;;;;;;3.40;1.93;;;;;;;;;;5092830;28;20027;-56
2022/12/12 08:25:18;;;;;;;2.73;1.90;;;;;;;;;;5087392;28;20024;-56
2022/12/12 08:27:45;;;;;;;1.73;1.33;;;;;;;;;;5087352;28;20024;-55
2022/12/12 08:30:12;;;;;;;2.50;1.67;;;;;;;;;;5087488;28;20314;-56
2022/12/12 08:32:39;;;;;;;1.50;1.37;;;;;;;;;;5087106;28;20321;-55
2022/12/12 08:35:06;;;;;;;7.97;2.43;;;;;;;;;;5091860;28;20024;-56
2022/12/12 08:37:32;;;;;;;0.93;0.83;;;;;;;;;;5092663;28;20032;-56
2022/12/12 08:39:59;;;;;;;2.20;1.73;;;;;;;;;;5092465;28;20268;-57
2022/12/12 08:42:26;;;;;;;1.57;1.27;;;;;;;;;;5092705;28;20028;-56
2022/12/12 08:44:52;;;;;;;3.20;1.83;;;;;;;;;;5092136;28;20082;-56
2022/12/12 08:47:19;;;;;;;4.43;1.43;;;;;;;;;;5087109;28;20759;-56
2022/12/12 08:49:46;;;;;;;4.80;1.80;;;;;;;;;;5087042;28;20649;-55
2022/12/12 08:52:12;;;;;;;2.97;1.20;;;;;;;;;;5085949;28;20437;-56
2022/12/12 08:54:39;;;;;;;0.97;0.80;;;;;;;;;;5087275;28;20378;-55
2022/12/12 08:57:06;;;;;;;2.07;1.80;;;;;;;;;;5091513;28;20252;-56
2022/12/12 08:59:32;;;;;;;3.70;1.40;;;;;;;;;;5092260;28;20292;-56
2022/12/12 09:01:59;;;;;;;2.57;1.97;;;;;;;;;;5092227;28;20310;-56
2022/12/12 09:04:26;;;;;;;2.70;1.73;;;;;;;;;;5092069;28;20249;-56
2022/12/12 09:06:52;;;;;;;1.70;1.43;;;;;;;;;;5092360;28;20265;-56
2022/12/12 09:09:19;;;;;;;3.00;1.80;;;;;;;;;;5087533;28;20336;-56
2022/12/12 09:11:46;;;;;;;3.83;2.10;;;;;;;;;;5086707;28;20750;-56
2022/12/12 09:14:12;;;;;;;2.23;1.57;;;;;;;;;;5086824;28;20260;-56
2022/12/12 09:16:39;;;;;;;4.00;2.50;;;;;;;;;;5086844;28;20334;-56
2022/12/12 09:19:06;;;;;;;5.40;2.37;;;;;;;;;;5090311;28;20396;-56
2022/12/12 09:21:33;;;;;;;3.03;1.87;;;;;;;;;;5096037;28;20252;-56
2022/12/12 09:24:00;;;;;;;1.47;1.33;;;;;;;;;;5096184;28;20321;-56
2022/12/12 09:26:27;;;;;;;2.10;1.70;;;;;;;;;;5095949;28;20253;-56
2022/12/12 09:28:54;;;;;;;2.37;1.20;;;;;;;;;;5096547;28;20665;-56
2022/12/12 09:31:21;;;;;;;2.80;1.57;;;;;;;;;;5091971;28;20260;-55
2022/12/12 09:33:47;;;;;;;3.03;1.93;;;;;;;;;;5090581;28;20677;-56
2022/12/12 09:36:14;;;;;;;1.57;1.37;;;;;;;;;;5090337;28;20638;-56
2022/12/12 09:38:41;;;;;;;2.80;2.00;;;;;;;;;;5090413;28;20292;-56
2022/12/12 09:41:25;;;;;;;5.80;2.50;;;;;;;;;;5094085;28;20257;-55
2022/12/12 09:44:08;;;;;;;3.30;2.40;;;;;;;;;;5095899;28;20257;-56
2022/12/12 09:46:40;;;;;;;2.13;1.83;;;;;;;;;;5095137;28;20330;-56
2022/12/12 09:49:11;;;;;;;3.17;2.00;;;;;;;;;;5095733;28;20743;-55
2022/12/12 09:51:37;;;;;;;2.60;1.93;;;;;;;;;;5095816;28;20277;-56
2022/12/12 09:54:04;;;;;;;1.83;1.50;;;;;;;;;;5090113;28;20252;-56
2022/12/12 09:56:40;;;;;;;1.93;1.47;;;;;;;;;;5090372;28;20742;-56
2022/12/12 09:59:19;;;;;;;2.47;1.90;;;;;;;;;;5089596;28;20311;-56
2022/12/12 10:01:45;;;;;;;1.90;1.70;;;;;;;;;;5089817;28;20269;-56
2022/12/12 10:04:30;;;;;;;2.93;2.43;;;;;;;;;;5095518;28;20645;-56
2022/12/12 10:06:57;;;;;;;2.72;1.48;;;;;;;;;;5095439;28;20240;-56
2022/12/12 10:09:23;;;;;;;5.97;2.87;;;;;;;;;;5094836;28;20036;-56
2022/12/12 10:11:54;;;;;;;1.63;1.33;;;;;;;;;;5094063;28;20256;-55
2022/12/12 10:14:39;;;;;;;1.63;1.30;;;;;;;;;;5093784;28;20269;-56
2022/12/12 10:17:16;;;;;;;3.35;2.20;;;;;;;;;;5069510;28;20265;-56
2022/12/12 10:19:47;;;;;;;2.47;1.90;;;;;;;;;;5069596;28;20040;-56
2022/12/12 10:22:22;;;;;;;4.40;2.37;;;;;;;;;;5069493;28;20323;-56
2022/12/12 10:25:08;;;;;;;3.53;2.70;;;;;;;;;;5071154;28;20324;-55
2022/12/12 10:27:35;;;;;;;2.93;1.93;;;;;;;;;;5074599;28;20020;-56
2022/12/12 10:30:13;;;;;;;1.60;1.30;;;;;;;;;;5074516;28;20348;-56
2022/12/12 10:32:52;;;;;;;1.53;1.17;;;;;;;;;;5074620;28;20265;-56
2022/12/12 10:35:19;;;;;;;1.80;1.30;;;;;;;;;;5074674;28;21099;-56
2022/12/12 10:37:46;;;;;;;4.43;2.30;;;;;;;;;;5070792;28;20327;-56
2022/12/12 10:40:33;;;;;;;3.23;2.03;;;;;;;;;;5069416;28;20262;-56
2022/12/12 10:42:59;;;;;;;2.50;1.90;;;;;;;;;;5081163;28;20682;-56
2022/12/12 10:45:31;;;;;;;1.90;1.57;;;;;;;;;;5089281;28;20743;-56
2022/12/12 10:47:57;;;;;;;4.00;3.00;;;;;;;;;;5092427;28;20264;-56
2022/12/12 10:50:24;;;;;;;2.07;1.77;;;;;;;;;;5094686;28;20288;-56
2022/12/12 10:52:51;;;;;;;3.87;2.63;;;;;;;;;;5094723;28;20750;-56
2022/12/12 10:55:19;;;;;;;6.37;2.83;;;;;;;;;;5094566;28;20257;-56
2022/12/12 10:57:46;;;;;;;1.97;1.40;;;;;;;;;;5094402;28;20288;-55
2022/12/12 11:00:26;;;;;;;2.53;1.97;;;;;;;;;;5090405;28;20661;-55
2022/12/12 11:02:56;;;;;;;1.87;1.67;;;;;;;;;;5089020;28;20306;-55
2022/12/12 11:05:31;;;;;;;4.03;2.57;;;;;;;;;;5089038;28;20329;-56
2022/12/12 11:08:00;;;;;;;1.73;1.50;;;;;;;;;;5088598;28;20688;-55
2022/12/12 11:10:36;;;;;;;2.87;1.93;;;;;;;;;;5093035;28;20470;-56
2022/12/12 11:13:11;;;;;;;2.85;2.10;;;;;;;;;;5094016;28;20615;-55
2022/12/12 11:15:45;;;;;;;2.97;2.20;;;;;;;;;;5094145;28;20397;-55
2022/12/12 11:18:15;;;;;;;2.17;1.80;;;;;;;;;;5093872;28;20347;-55
2022/12/12 11:20:46;;;;;;;4.07;2.33;;;;;;;;;;5094035;28;20311;-55
2022/12/12 11:23:17;;;;;;;2.20;1.77;;;;;;;;;;5088280;28;20265;-55
2022/12/12 11:25:43;;;;;;;2.53;2.00;;;;;;;;;;5088073;28;20324;-56
2022/12/12 11:28:16;;;;;;;3.73;2.23;;;;;;;;;;5088551;28;20261;-56
2022/12/12 11:30:44;;;;;;;3.80;2.10;;;;;;;;;;5088529;28;20253;-56
2022/12/12 11:33:19;;;;;;;1.47;1.03;;;;;;;;;;5093790;28;20256;-56
2022/12/12 11:35:46;;;;;;;4.20;2.10;;;;;;;;;;5093444;28;20268;-56
2022/12/12 11:38:24;;;;;;;2.20;1.67;;;;;;;;;;5093751;28;20289;-56
2022/12/12 11:40:59;;;;;;;3.30;2.17;;;;;;;;;;5093452;28;20269;-55
2022/12/12 11:43:27;;;;;;;2.75;1.55;;;;;;;;;;5091600;28;20282;-55
2022/12/12 11:46:11;;;;;;;2.20;1.50;;;;;;;;;;5087986;28;20115;-55
2022/12/12 11:48:38;;;;;;;2.08;1.77;;;;;;;;;;5088165;28;20738;-55
2022/12/12 11:51:05;;;;;;;2.17;1.87;;;;;;;;;;5088008;28;20027;-56
2022/12/12 11:53:43;;;;;;;2.80;2.37;;;;;;;;;;5089266;28;20340;-55
2022/12/12 11:56:10;;;;;;;1.80;1.60;;;;;;;;;;5092963;28;20269;-55
2022/12/12 11:58:42;;;;;;;2.47;1.70;;;;;;;;;;5092894;28;20324;-55
2022/12/12 12:01:18;;;;;;;3.23;2.23;;;;;;;;;;5093391;28;20248;-55
2022/12/12 12:04:00;;;;;;;2.40;1.97;;;;;;;;;;5093511;28;20252;-55
2022/12/12 12:06:36;;;;;;;3.20;2.10;;;;;;;;;;5090148;28;20742;-55
2022/12/12 12:09:06;;;;;;;2.53;1.83;;;;;;;;;;5087747;28;20296;-55
2022/12/12 12:11:38;;;;;;;3.70;2.33;;;;;;;;;;5087781;28;20768;-55
2022/12/12 12:14:08;;;;;;;7.53;2.37;;;;;;;;;;5087510;28;20263;-55
2022/12/12 12:16:35;;;;;;;2.37;1.73;;;;;;;;;;5090933;28;20252;-55
2022/12/12 12:19:01;;;;;;;5.17;2.47;;;;;;;;;;5092999;28;20288;-55
2022/12/12 12:21:31;;;;;;;6.60;3.87;;;;;;;;;;5092507;28;20754;-55
2022/12/12 12:24:04;;;;;;;4.13;2.93;;;;;;;;;;5092901;28;20292;-55
2022/12/12 12:26:46;;;;;;;5.87;3.83;;;;;;;;;;5092606;28;20734;-55
2022/12/12 12:29:25;;;;;;;3.53;2.47;;;;;;;;;;5088195;28;20332;-55
2022/12/12 12:31:57;;;;;;;2.67;2.20;;;;;;;;;;5087346;28;20603;-56
2022/12/12 12:34:27;;;;;;;3.17;2.17;;;;;;;;;;5087380;28;20248;-55
2022/12/12 12:37:03;;;;;;;6.87;3.00;;;;;;;;;;5086955;28;20256;-55
2022/12/12 12:39:50;;;;;;;2.70;2.20;;;;;;;;;;5091991;28;20341;-55
2022/12/12 12:42:23;;;;;;;8.27;3.60;;;;;;;;;;5092504;28;20255;-56
2022/12/12 12:45:07;;;;;;;3.83;2.60;;;;;;;;;;5092151;28;20302;-55
2022/12/12 12:47:40;;;;;;;3.73;2.77;;;;;;;;;;5092437;28;20269;-55
2022/12/12 12:50:19;;;;;;;7.80;3.20;;;;;;;;;;5090558;28;20292;-56
2022/12/12 12:52:51;;;;;;;3.30;2.37;;;;;;;;;;5086609;28;20257;-55
2022/12/12 12:55:24;;;;;;;6.93;3.23;;;;;;;;;;5087194;28;20317;-55
2022/12/12 12:57:51;;;;;;;4.10;3.37;;;;;;;;;;5086917;28;20293;-55
2022/12/12 13:00:28;;;;;;;2.60;2.30;;;;;;;;;;5088499;28;20299;-55
2022/12/12 13:03:12;;;;;;;7.70;3.73;;;;;;;;;;5091868;28;20257;-55
2022/12/12 13:05:45;;;;;;;5.67;1.87;;;;;;;;;;5092402;28;20288;-55
2022/12/12 13:08:14;;;;;;;10.13;3.53;;;;;;;;;;5092143;28;20257;-55
2022/12/12 13:10:44;;;;;;;8.37;3.90;;;;;;;;;;5092399;28;20326;-55
2022/12/12 13:13:31;;;;;;;2.60;1.53;;;;;;;;;;5088252;28;20746;-55
2022/12/12 13:16:18;;;;;;;3.30;2.20;;;;;;;;;;5086844;28;20361;-55
2022/12/12 13:18:46;;;;;;;4.20;2.83;;;;;;;;;;5066325;28;20300;-55
2022/12/12 13:21:19;;;;;;;2.07;1.77;;;;;;;;;;5066551;28;20257;-56
2022/12/12 13:24:04;;;;;;;5.30;4.10;;;;;;;;;;5071298;28;20253;-55
2022/12/12 13:26:49;;;;;;;7.28;4.70;;;;;;;;;;5072081;28;20631;-56
2022/12/12 13:29:19;;;;;;;3.22;2.63;;;;;;;;;;5079941;28;20035;-55
2022/12/12 13:32:14;;;;;;;4.27;3.13;;;;;;;;;;5091780;28;20021;-55
2022/12/12 13:34:44;;;;;;;3.03;2.55;;;;;;;;;;5086768;28;20263;-56
2022/12/12 13:37:31;;;;;;;3.07;2.40;;;;;;;;;;5084144;28;20119;-55
2022/12/12 13:40:03;;;;;;;5.23;3.07;;;;;;;;;;5084061;28;20312;-56
2022/12/12 13:42:48;;;;;;;5.50;3.50;;;;;;;;;;5084082;28;20794;-55
2022/12/12 13:45:33;;;;;;;3.67;2.92;;;;;;;;;;5087058;28;20426;-56
2022/12/12 13:48:01;;;;;;;7.18;3.28;;;;;;;;;;5089899;28;20112;-55
2022/12/12 13:50:27;;;;;;;10.07;3.10;;;;;;;;;;5089603;28;20134;-55
2022/12/12 13:53:06;;;;;;;5.67;3.00;;;;;;;;;;5089170;28;20794;-55
2022/12/12 13:55:33;;;;;;;20.50;3.87;;;;;;;;;;5089726;28;20506;-55
2022/12/12 13:58:05;;;;;;;20.07;5.47;;;;;;;;;;5084346;28;20296;-56
2022/12/12 14:00:35;;;;;;;16.37;4.47;;;;;;;;;;5083829;28;20264;-56
2022/12/12 14:03:08;;;;;;;31.27;4.17;;;;;;;;;;5082889;28;20339;-56
2022/12/12 14:05:38;;;;;;;30.93;4.50;;;;;;;;;;5086062;28;20042;-56
2022/12/12 14:08:25;;;;;;;12.90;3.80;;;;;;;;;;5094629;28;20074;-55
2022/12/12 14:10:54;;;;;;;4.20;3.33;;;;;;;;;;5095235;28;20016;-56
2022/12/12 14:13:21;;;;;;;20.73;4.03;;;;;;;;;;5095385;28;20019;-56
2022/12/12 14:15:49;;;;;;;4.77;3.07;;;;;;;;;;5095472;28;20114;-56
2022/12/12 14:18:20;;;;;;;7.63;4.77;;;;;;;;;;5095010;28;20471;-56
2022/12/12 14:20:59;;;;;;;6.63;4.93;;;;;;;;;;5089850;28;20459;-55
2022/12/12 14:23:26;;;;;;;8.60;5.43;;;;;;;;;;5088587;28;20050;-57
2022/12/12 14:25:52;;;;;;;6.27;4.97;;;;;;;;;;5089304;28;20081;-56
2022/12/12 14:28:20;;;;;;;16.07;6.80;;;;;;;;;;5089320;28;20024;-56
2022/12/12 14:30:52;;;;;;;10.07;6.90;;;;;;;;;;5094828;28;20036;-56
2022/12/12 14:33:27;;;;;;;9.67;4.73;;;;;;;;;;5094790;28;20445;-56
2022/12/12 14:36:04;;;;;;;11.97;5.60;;;;;;;;;;5094474;28;20027;-56
2022/12/12 14:38:38;;;;;;;15.60;6.87;;;;;;;;;;5094822;28;20038;-57
2022/12/12 14:41:09;;;;;;;7.17;5.80;;;;;;;;;;5092702;28;20163;-56
2022/12/12 14:43:40;;;;;;;5.17;4.20;;;;;;;;;;5089172;28;20024;-56
2022/12/12 14:46:14;;;;;;;6.90;4.40;;;;;;;;;;5088944;28;20042;-55
2022/12/12 14:48:40;;;;;;;8.17;5.20;;;;;;;;;;5089068;28;20024;-56
2022/12/12 14:51:10;;;;;;;7.80;4.47;;;;;;;;;;5091209;28;20028;-56
2022/12/12 14:53:36;;;;;;;7.03;5.07;;;;;;;;;;5094196;28;20020;-56
2022/12/12 14:56:03;;;;;;;5.40;3.97;;;;;;;;;;5094461;28;20077;-57
2022/12/12 14:58:31;;;;;;;9.60;5.03;;;;;;;;;;5093762;28;20107;-56
2022/12/12 15:01:00;;;;;;;8.23;3.73;;;;;;;;;;5094273;28;20386;-57
2022/12/12 15:03:38;;;;;;;10.53;6.07;;;;;;;;;;5091685;28;20031;-57
2022/12/12 15:06:23;;;;;;;6.13;3.17;;;;;;;;;;5088407;28;20032;-56
2022/12/12 15:08:51;;;;;;;5.78;3.55;;;;;;;;;;5088718;28;20026;-57
2022/12/12 15:11:21;;;;;;;8.50;3.93;;;;;;;;;;5088960;28;20043;-56
2022/12/12 15:13:52;;;;;;;3.80;2.90;;;;;;;;;;5091510;28;20048;-57
2022/12/12 15:16:20;;;;;;;5.57;3.70;;;;;;;;;;5093944;28;20020;-57
2022/12/12 15:18:47;;;;;;;4.93;2.97;;;;;;;;;;5093977;28;20054;-56
2022/12/12 15:21:15;;;;;;;5.23;3.53;;;;;;;;;;5093547;28;20032;-57
2022/12/12 15:23:42;;;;;;;3.23;2.37;;;;;;;;;;5094096;28;20050;-56
2022/12/12 15:26:19;;;;;;;4.60;3.10;;;;;;;;;;5090430;28;20486;-57
2022/12/12 15:28:46;;;;;;;2.70;2.10;;;;;;;;;;5088496;28;20085;-57